Time;durP1;ratioP1;P1;durP2;ratioP2;P2;SDS_P1;SDS_P2;PMS_P1;PMS_P2;Temp;Humidity;BMP_temperature;BMP_pressure;BME280_temperature;BME280_humidity;BME280_pressure;Samples;Min_cycle;Max_cycle;Signal;HPM_P1;HPM_P2
2023/08/31 00:04:15;;;;;;;;;;;20.40;62.50;;;;;;10222455;28;95113;-70
2023/08/31 00:09:18;;;;;;;;;;;20.40;62.50;;;;;;10230909;28;93588;-70
2023/08/31 00:14:22;;;;;;;;;;;20.40;62.50;;;;;;10239324;28;93598;-69
2023/08/31 00:19:24;;;;;;;;;;;20.40;62.50;;;;;;10238957;28;94114;-70
2023/08/31 00:24:31;;;;;;;;;;;20.40;62.50;;;;;;10254137;28;93555;-69
2023/08/31 00:29:33;;;;;;;;;;;20.40;62.50;;;;;;10237162;28;92766;-69
2023/08/31 00:34:35;;;;;;;;;;;20.40;62.60;;;;;;10238740;28;93504;-70
2023/08/31 00:39:37;;;;;;;;;;;20.40;62.70;;;;;;10236902;28;96984;-70
2023/08/31 00:44:39;;;;;;;;;;;20.40;62.60;;;;;;10211129;28;96167;-70
2023/08/31 00:49:42;;;;;;;;;;;20.40;62.50;;;;;;10236050;28;93499;-70
2023/08/31 00:54:44;;;;;;;;;;;20.40;62.60;;;;;;10238715;28;93649;-70
2023/08/31 00:59:46;;;;;;;;;;;20.40;62.60;;;;;;10235773;28;92665;-70
2023/08/31 01:05:08;;;;;;;;;;;20.40;62.50;;;;;;10237182;28;94534;-70
2023/08/31 01:10:12;;;;;;;;;;;20.40;62.50;;;;;;10237163;28;93473;-71
2023/08/31 01:15:15;;;;;;;;;;;20.40;62.50;;;;;;10236492;28;94807;-70
2023/08/31 01:20:27;;;;;;;;;;;20.40;62.40;;;;;;10237424;28;93886;-70
2023/08/31 01:25:30;;;;;;;;;;;20.40;62.40;;;;;;10232869;28;93892;-70
2023/08/31 01:30:32;;;;;;;;;;;20.40;62.50;;;;;;10232978;28;94451;-70
2023/08/31 01:35:41;;;;;;;;;;;20.40;62.30;;;;;;10232602;28;95944;-71
2023/08/31 01:40:45;;;;;;;;;;;20.40;62.30;;;;;;10241289;28;94278;-70
2023/08/31 01:45:47;;;;;;;;;;;20.40;62.30;;;;;;10240222;28;93757;-70
2023/08/31 01:50:49;;;;;;;;;;;20.40;62.30;;;;;;10224026;28;94550;-69
2023/08/31 01:55:51;;;;;;;;;;;20.40;62.30;;;;;;10242389;28;94744;-70
2023/08/31 02:00:53;;;;;;;;;;;20.40;62.20;;;;;;10232196;28;93452;-70
2023/08/31 02:05:54;;;;;;;;;;;20.40;62.20;;;;;;10236045;28;94712;-70
2023/08/31 02:10:56;;;;;;;;;;;20.40;62.20;;;;;;10226170;28;93161;-69
2023/08/31 02:15:58;;;;;;;;;;;20.40;62.20;;;;;;10237841;28;93562;-70
2023/08/31 02:21:00;;;;;;;;;;;20.50;62.20;;;;;;10235290;28;94813;-69
2023/08/31 02:26:03;;;;;;;;;;;20.40;62.10;;;;;;10233445;28;96346;-70
2023/08/31 02:31:05;;;;;;;;;;;20.40;62.10;;;;;;10209856;28;95436;-70
2023/08/31 02:36:07;;;;;;;;;;;20.40;62.10;;;;;;10235075;28;93754;-70
2023/08/31 02:41:09;;;;;;;;;;;20.40;62.10;;;;;;10222512;28;93057;-70
2023/08/31 02:46:11;;;;;;;;;;;20.40;62.10;;;;;;10232488;28;94418;-69
2023/08/31 02:51:13;;;;;;;;;;;20.40;62.10;;;;;;10217999;28;94442;-70
2023/08/31 02:56:15;;;;;;;;;;;20.40;62.10;;;;;;10219797;28;94401;-70
2023/08/31 03:01:17;;;;;;;;;;;20.40;62.10;;;;;;10228475;28;93280;-70
2023/08/31 03:06:18;;;;;;;;;;;20.30;62.10;;;;;;10221103;28;93997;-70
2023/08/31 03:11:20;;;;;;;;;;;20.30;62.10;;;;;;10228383;28;94799;-70
2023/08/31 03:16:22;;;;;;;;;;;20.30;62.10;;;;;;10213550;28;97221;-70
2023/08/31 03:21:24;;;;;;;;;;;20.30;62.00;;;;;;10209093;28;94575;-69
2023/08/31 03:26:26;;;;;;;;;;;20.30;62.10;;;;;;10233861;28;93428;-70
2023/08/31 03:31:29;;;;;;;;;;;20.30;62.10;;;;;;10219465;28;93823;-70
2023/08/31 03:36:31;;;;;;;;;;;20.30;62.10;;;;;;10234408;28;94096;-70
2023/08/31 03:41:35;;;;;;;;;;;20.30;62.10;;;;;;10244549;28;94463;-70
2023/08/31 03:46:37;;;;;;;;;;;20.20;62.00;;;;;;10232499;28;94914;-70
2023/08/31 03:51:39;;;;;;;;;;;20.20;62.10;;;;;;10233031;28;93875;-70
2023/08/31 03:56:41;;;;;;;;;;;20.20;62.10;;;;;;10239697;28;94018;-70
2023/08/31 04:01:43;;;;;;;;;;;20.20;62.10;;;;;;10228719;28;93537;-70
2023/08/31 04:06:45;;;;;;;;;;;20.20;62.10;;;;;;10232808;28;96447;-69
2023/08/31 04:11:47;;;;;;;;;;;20.20;62.10;;;;;;10238508;28;93753;-70
2023/08/31 04:16:50;;;;;;;;;;;20.20;62.10;;;;;;10236757;28;94461;-70
2023/08/31 04:21:51;;;;;;;;;;;20.20;62.20;;;;;;10213507;28;94478;-69
2023/08/31 04:26:54;;;;;;;;;;;20.20;62.20;;;;;;10223385;28;94811;-69
2023/08/31 04:31:58;;;;;;;;;;;20.20;62.30;;;;;;10221233;28;93456;-70
2023/08/31 04:37:00;;;;;;;;;;;20.20;62.30;;;;;;10231230;28;93477;-69
2023/08/31 04:42:02;;;;;;;;;;;20.20;62.30;;;;;;10234553;28;93579;-70
2023/08/31 04:52:19;;;;;;;;;;;20.10;62.30;;;;;;10205272;28;94735;-72
2023/08/31 04:57:21;;;;;;;;;;;20.10;62.30;;;;;;10216309;28;95952;-72
2023/08/31 05:02:23;;;;;;;;;;;20.10;62.30;;;;;;10221060;28;94437;-72
2023/08/31 05:07:26;;;;;;;;;;;20.10;62.40;;;;;;10223513;28;94118;-72
2023/08/31 05:12:29;;;;;;;;;;;20.10;62.40;;;;;;10217609;28;93771;-73
2023/08/31 05:17:31;;;;;;;;;;;20.10;62.40;;;;;;10217364;28;94408;-70
2023/08/31 05:22:34;;;;;;;;;;;20.10;62.50;;;;;;10184822;28;93467;-75
2023/08/31 05:27:36;;;;;;;;;;;20.10;63.50;;;;;;10201390;28;94779;-75
2023/08/31 05:32:38;;;;;;;;;;;20.10;64.00;;;;;;10199549;28;92936;-72
2023/08/31 05:37:40;;;;;;;;;;;20.10;63.80;;;;;;10223228;28;93456;-72
2023/08/31 05:42:42;;;;;;;;;;;20.10;63.90;;;;;;10211757;28;94470;-72
2023/08/31 05:47:44;;;;;;;;;;;20.10;63.70;;;;;;10196325;28;95733;-72
2023/08/31 05:52:46;;;;;;;;;;;20.10;63.60;;;;;;10194807;28;93421;-72
2023/08/31 05:57:48;;;;;;;;;;;20.00;63.60;;;;;;10223475;28;94750;-72
2023/08/31 06:02:50;;;;;;;;;;;20.00;63.60;;;;;;10206895;28;93592;-71
2023/08/31 06:07:52;;;;;;;;;;;20.00;63.60;;;;;;10210355;28;93402;-71
2023/08/31 06:12:54;;;;;;;;;;;20.00;63.60;;;;;;10233199;28;93688;-72
2023/08/31 06:17:57;;;;;;;;;;;20.00;63.60;;;;;;10216467;28;93555;-72
2023/08/31 06:23:01;;;;;;;;;;;20.00;63.50;;;;;;10196307;28;93670;-72
2023/08/31 06:28:05;;;;;;;;;;;20.00;63.60;;;;;;10219182;28;93658;-72
2023/08/31 06:33:07;;;;;;;;;;;20.10;63.60;;;;;;10229578;28;93492;-73
2023/08/31 06:38:09;;;;;;;;;;;20.10;63.60;;;;;;10194531;28;96871;-73
2023/08/31 06:43:12;;;;;;;;;;;20.10;63.60;;;;;;10206575;28;93940;-73
2023/08/31 06:48:14;;;;;;;;;;;20.10;63.70;;;;;;10208617;28;93902;-73
2023/08/31 06:53:16;;;;;;;;;;;20.10;63.50;;;;;;10217775;28;93425;-73
2023/08/31 06:58:17;;;;;;;;;;;20.10;63.60;;;;;;10207616;28;94389;-72
2023/08/31 07:03:19;;;;;;;;;;;20.10;63.50;;;;;;10200819;28;95130;-73
2023/08/31 07:08:21;;;;;;;;;;;20.10;64.50;;;;;;10201132;28;93497;-72
2023/08/31 07:13:23;;;;;;;;;;;20.10;63.40;;;;;;10220837;28;93863;-73
2023/08/31 07:18:24;;;;;;;;;;;20.20;63.40;;;;;;10200442;28;94900;-73
2023/08/31 07:23:27;;;;;;;;;;;20.20;63.30;;;;;;10219156;28;94090;-72
2023/08/31 07:28:31;;;;;;;;;;;20.20;63.30;;;;;;10197462;28;95841;-73
2023/08/31 07:33:34;;;;;;;;;;;20.20;63.30;;;;;;10205263;28;94007;-72
2023/08/31 07:38:36;;;;;;;;;;;20.20;63.30;;;;;;10225830;28;94223;-72
2023/08/31 07:43:38;;;;;;;;;;;20.20;63.20;;;;;;10216879;28;93957;-72
2023/08/31 07:48:56;;;;;;;;;;;20.20;63.30;;;;;;10214994;28;94635;-73
2023/08/31 07:53:59;;;;;;;;;;;20.20;63.30;;;;;;10210855;28;94045;-72
2023/08/31 07:59:03;;;;;;;;;;;20.20;63.30;;;;;;10215968;28;93406;-72
2023/08/31 08:04:05;;;;;;;;;;;20.20;63.50;;;;;;10208973;28;93022;-73
2023/08/31 08:09:06;;;;;;;;;;;20.20;63.50;;;;;;10213239;28;93635;-72
2023/08/31 08:14:08;;;;;;;;;;;20.20;64.00;;;;;;10224471;28;95866;-73
2023/08/31 08:19:10;;;;;;;;;;;20.20;63.90;;;;;;10212968;28;98342;-72
2023/08/31 08:24:12;;;;;;;;;;;20.20;63.90;;;;;;10215669;28;93832;-72
2023/08/31 08:29:13;;;;;;;;;;;20.20;63.90;;;;;;10233859;28;94543;-71
2023/08/31 08:34:15;;;;;;;;;;;20.20;63.90;;;;;;10219493;28;94338;-71
2023/08/31 08:39:17;;;;;;;;;;;20.20;64.10;;;;;;10228808;28;93858;-72
2023/08/31 08:44:21;;;;;;;;;;;20.20;64.10;;;;;;10223970;28;94824;-71
2023/08/31 08:49:23;;;;;;;;;;;20.20;64.10;;;;;;10210968;28;94444;-72
2023/08/31 08:54:27;;;;;;;;;;;20.20;64.10;;;;;;10212029;28;92828;-71
2023/08/31 08:59:30;;;;;;;;;;;20.20;64.10;;;;;;10223792;28;93195;-71
2023/08/31 09:04:32;;;;;;;;;;;20.20;64.20;;;;;;10210095;28;93422;-72
2023/08/31 09:09:48;;;;;;;;;;;20.20;64.20;;;;;;10211383;28;96023;-71
2023/08/31 09:15:04;;;;;;;;;;;20.20;64.10;;;;;;10224815;28;93529;-72
2023/08/31 09:20:06;;;;;;;;;;;20.20;64.30;;;;;;10208443;28;93509;-72
2023/08/31 09:25:08;;;;;;;;;;;20.20;64.30;;;;;;10210876;28;94731;-72
2023/08/31 09:30:10;;;;;;;;;;;20.20;64.20;;;;;;10211190;28;93603;-71
2023/08/31 09:35:12;;;;;;;;;;;20.20;64.20;;;;;;10215781;28;94130;-72
2023/08/31 09:40:19;;;;;;;;;;;20.30;64.20;;;;;;10226621;28;94404;-71
2023/08/31 09:45:29;;;;;;;;;;;20.30;64.00;;;;;;10206961;28;92687;-71
2023/08/31 09:50:47;;;;;;;;;;;20.40;63.90;;;;;;10221444;28;94064;-72
2023/08/31 09:55:50;;;;;;;;;;;20.40;63.80;;;;;;10234539;28;94405;-71
2023/08/31 10:00:54;;;;;;;;;;;20.50;63.90;;;;;;10232330;28;116299;-71
2023/08/31 10:06:00;;;;;;;;;;;20.50;63.80;;;;;;10180643;28;94042;-71
2023/08/31 10:11:03;;;;;;;;;;;20.50;63.70;;;;;;10198951;28;92776;-71
2023/08/31 10:16:05;;;;;;;;;;;20.60;63.50;;;;;;10208680;28;94876;-72
2023/08/31 10:21:08;;;;;;;;;;;20.60;63.50;;;;;;10194852;28;93628;-72
2023/08/31 10:26:09;;;;;;;;;;;20.70;63.20;;;;;;10191586;28;93308;-72
2023/08/31 10:31:18;;;;;;;;;;;20.80;63.20;;;;;;10207932;28;93936;-72
2023/08/31 10:36:20;;;;;;;;;;;20.80;63.00;;;;;;10197183;28;93752;-72
2023/08/31 10:41:22;;;;;;;;;;;20.80;62.90;;;;;;10219637;28;93797;-72
2023/08/31 10:46:25;;;;;;;;;;;20.80;62.90;;;;;;10196343;28;93532;-72
2023/08/31 10:51:30;;;;;;;;;;;20.80;63.00;;;;;;10217112;28;95713;-72
2023/08/31 10:56:32;;;;;;;;;;;20.80;63.00;;;;;;10199772;28;94446;-72
2023/08/31 11:01:53;;;;;;;;;;;20.80;63.10;;;;;;10206265;28;93933;-72
2023/08/31 11:07:11;;;;;;;;;;;20.80;63.10;;;;;;10231405;28;94273;-72
2023/08/31 11:12:13;;;;;;;;;;;20.80;63.00;;;;;;10225910;28;94330;-72
2023/08/31 11:17:16;;;;;;;;;;;20.80;63.00;;;;;;10221485;28;94793;-72
2023/08/31 11:22:18;;;;;;;;;;;20.80;63.10;;;;;;10214643;28;93546;-73
2023/08/31 11:27:20;;;;;;;;;;;20.80;63.20;;;;;;10216544;28;94884;-72
2023/08/31 11:32:29;;;;;;;;;;;20.70;63.20;;;;;;10201439;28;93382;-73
2023/08/31 11:37:31;;;;;;;;;;;20.70;63.20;;;;;;10207484;28;93362;-73
2023/08/31 11:42:33;;;;;;;;;;;20.70;63.30;;;;;;10205704;28;96821;-73
2023/08/31 11:47:35;;;;;;;;;;;20.70;63.30;;;;;;10233272;28;94447;-73
2023/08/31 11:52:38;;;;;;;;;;;20.70;63.30;;;;;;10216400;28;94168;-73
2023/08/31 11:57:39;;;;;;;;;;;20.70;63.30;;;;;;10192653;28;94452;-73
2023/08/31 12:02:41;;;;;;;;;;;20.70;63.30;;;;;;10219646;28;93504;-74
2023/08/31 12:07:43;;;;;;;;;;;20.70;63.30;;;;;;10213854;28;92648;-73
2023/08/31 12:12:45;;;;;;;;;;;20.70;63.30;;;;;;10226314;28;94256;-73
2023/08/31 12:17:53;;;;;;;;;;;20.70;63.30;;;;;;10209977;28;93431;-73
2023/08/31 12:22:56;;;;;;;;;;;20.70;63.30;;;;;;10219810;28;94747;-73
2023/08/31 12:27:59;;;;;;;;;;;20.70;63.40;;;;;;10192298;28;96077;-73
2023/08/31 12:33:02;;;;;;;;;;;20.70;63.20;;;;;;10226079;28;95835;-72
2023/08/31 12:38:04;;;;;;;;;;;20.80;63.20;;;;;;10225731;28;94521;-73
2023/08/31 12:43:05;;;;;;;;;;;20.70;63.10;;;;;;10200556;28;93823;-72
2023/08/31 12:48:08;;;;;;;;;;;20.70;63.10;;;;;;10199758;28;94796;-73
2023/08/31 12:53:10;;;;;;;;;;;20.70;63.10;;;;;;10199537;28;95041;-73
2023/08/31 12:58:12;;;;;;;;;;;20.70;63.10;;;;;;10212226;28;93512;-68
2023/08/31 13:03:14;;;;;;;;;;;20.70;63.10;;;;;;10205643;28;94077;-68
2023/08/31 13:08:16;;;;;;;;;;;20.70;63.00;;;;;;10183171;28;93658;-69
2023/08/31 13:13:18;;;;;;;;;;;20.80;63.00;;;;;;10230445;28;93545;-69
2023/08/31 13:18:20;;;;;;;;;;;20.70;62.70;;;;;;10225329;28;94290;-68
2023/08/31 13:23:22;;;;;;;;;;;20.80;62.80;;;;;;10223209;28;96588;-68
2023/08/31 13:28:23;;;;;;;;;;;20.80;62.80;;;;;;10224292;28;93628;-67
2023/08/31 13:33:30;;;;;;;;;;;20.70;62.70;;;;;;10226321;28;93988;-72
2023/08/31 13:38:32;;;;;;;;;;;20.70;62.90;;;;;;10186779;28;93961;-71
2023/08/31 13:43:34;;;;;;;;;;;20.80;62.80;;;;;;10207745;28;94464;-71
2023/08/31 13:48:35;;;;;;;;;;;20.80;62.70;;;;;;10207972;28;94815;-72
2023/08/31 13:53:38;;;;;;;;;;;20.80;62.50;;;;;;10200777;28;94610;-72
2023/08/31 13:58:40;;;;;;;;;;;20.80;62.40;;;;;;10207698;28;93896;-72
2023/08/31 14:03:43;;;;;;;;;;;20.80;62.50;;;;;;10215442;28;93809;-72
2023/08/31 14:08:45;;;;;;;;;;;20.70;62.50;;;;;;10223690;28;92980;-72
2023/08/31 14:13:47;;;;;;;;;;;20.80;62.60;;;;;;10217252;28;96460;-72
2023/08/31 14:18:48;;;;;;;;;;;20.80;62.60;;;;;;10179786;28;93426;-72
2023/08/31 14:23:55;;;;;;;;;;;20.70;62.60;;;;;;10219324;28;93979;-73
2023/08/31 14:28:59;;;;;;;;;;;20.70;62.60;;;;;;10189767;28;94088;-68
2023/08/31 14:34:02;;;;;;;;;;;20.70;62.60;;;;;;10212359;28;94556;-67
2023/08/31 14:39:03;;;;;;;;;;;20.70;62.60;;;;;;10207973;28;94912;-68
2023/08/31 14:44:05;;;;;;;;;;;20.70;62.60;;;;;;10225279;28;93667;-68
2023/08/31 14:49:07;;;;;;;;;;;20.70;62.50;;;;;;10207700;28;93976;-68
2023/08/31 14:54:09;;;;;;;;;;;20.70;62.70;;;;;;10200846;28;93776;-68
2023/08/31 14:59:11;;;;;;;;;;;20.60;62.40;;;;;;10233651;28;94704;-68
2023/08/31 15:04:13;;;;;;;;;;;20.70;62.60;;;;;;10214580;28;96818;-68
2023/08/31 15:09:15;;;;;;;;;;;20.60;62.50;;;;;;10218774;28;96506;-68
2023/08/31 15:14:16;;;;;;;;;;;20.70;62.70;;;;;;10235664;28;93704;-67
2023/08/31 15:19:18;;;;;;;;;;;20.70;62.70;;;;;;10232938;28;93783;-68
2023/08/31 15:24:20;;;;;;;;;;;20.60;62.40;;;;;;10216753;28;93489;-68
2023/08/31 15:29:22;;;;;;;;;;;20.60;62.50;;;;;;10195102;28;92753;-67
2023/08/31 15:34:24;;;;;;;;;;;20.70;62.60;;;;;;10207647;28;94422;-68
2023/08/31 15:39:27;;;;;;;;;;;20.60;62.20;;;;;;10219284;28;94409;-72
2023/08/31 15:44:30;;;;;;;;;;;20.60;62.10;;;;;;10204842;28;96998;-72
2023/08/31 15:49:31;;;;;;;;;;;20.70;62.50;;;;;;10192928;28;94464;-73
2023/08/31 15:54:33;;;;;;;;;;;20.70;62.40;;;;;;10209904;28;96019;-72
2023/08/31 15:59:35;;;;;;;;;;;20.70;62.40;;;;;;10228955;28;94440;-72
2023/08/31 16:04:37;;;;;;;;;;;20.60;62.60;;;;;;10235259;28;93989;-69
2023/08/31 16:09:39;;;;;;;;;;;20.70;62.70;;;;;;10224676;28;93996;-67
2023/08/31 16:14:41;;;;;;;;;;;20.60;62.70;;;;;;10210619;28;94468;-68
2023/08/31 16:19:43;;;;;;;;;;;20.70;62.70;;;;;;10234032;28;94563;-71
2023/08/31 16:24:46;;;;;;;;;;;20.70;62.40;;;;;;10217202;28;93675;-70
2023/08/31 16:29:48;;;;;;;;;;;20.70;62.60;;;;;;10229531;28;93714;-71
2023/08/31 16:34:56;;;;;;;;;;;20.70;62.30;;;;;;10214002;28;94425;-72
2023/08/31 16:40:00;;;;;;;;;;;20.70;62.20;;;;;;10200912;28;92949;-71
2023/08/31 16:45:02;;;;;;;;;;;20.70;62.20;;;;;;10212197;28;96244;-71
2023/08/31 16:50:04;;;;;;;;;;;20.60;62.20;;;;;;10222131;28;94383;-72
2023/08/31 16:55:06;;;;;;;;;;;20.70;62.30;;;;;;10212953;28;94633;-71
2023/08/31 17:00:10;;;;;;;;;;;20.60;62.20;;;;;;10208895;28;94030;-71
2023/08/31 17:05:12;;;;;;;;;;;20.70;62.20;;;;;;10220858;28;94365;-70
2023/08/31 17:10:14;;;;;;;;;;;20.70;62.20;;;;;;10217295;28;93595;-71
2023/08/31 17:15:15;;;;;;;;;;;20.60;62.30;;;;;;10223041;28;93456;-72
2023/08/31 17:20:18;;;;;;;;;;;20.60;61.80;;;;;;10213736;28;93769;-72
2023/08/31 17:25:20;;;;;;;;;;;20.60;61.80;;;;;;10206733;28;94553;-71
2023/08/31 17:30:21;;;;;;;;;;;20.60;61.90;;;;;;10210684;28;92826;-67
2023/08/31 17:35:24;;;;;;;;;;;20.60;61.80;;;;;;10197953;28;96936;-68
2023/08/31 17:40:28;;;;;;;;;;;20.60;61.80;;;;;;10210967;28;93584;-67
2023/08/31 17:45:30;;;;;;;;;;;20.60;61.80;;;;;;10216152;28;93913;-68
2023/08/31 17:50:33;;;;;;;;;;;20.60;61.70;;;;;;10216573;28;93566;-67
2023/08/31 17:55:34;;;;;;;;;;;20.60;61.80;;;;;;10198856;28;94419;-67
2023/08/31 18:00:36;;;;;;;;;;;20.60;61.80;;;;;;10215305;28;94448;-67
2023/08/31 18:05:47;;;;;;;;;;;20.60;61.80;;;;;;10210296;28;94442;-67
2023/08/31 18:10:49;;;;;;;;;;;20.60;61.80;;;;;;10222713;28;93678;-67
2023/08/31 18:15:51;;;;;;;;;;;20.60;61.90;;;;;;10209052;28;93814;-68
2023/08/31 18:20:57;;;;;;;;;;;20.60;61.90;;;;;;10208091;28;93231;-67
2023/08/31 18:26:00;;;;;;;;;;;20.60;61.80;;;;;;10188992;28;96787;-68
2023/08/31 18:31:03;;;;;;;;;;;20.60;61.90;;;;;;10211808;28;93384;-67
2023/08/31 18:36:04;;;;;;;;;;;20.60;61.90;;;;;;10200724;28;93473;-67
2023/08/31 18:41:06;;;;;;;;;;;20.60;61.90;;;;;;10193578;28;94425;-68
2023/08/31 18:46:08;;;;;;;;;;;20.60;62.00;;;;;;10215482;28;95079;-68
2023/08/31 18:51:10;;;;;;;;;;;20.60;61.90;;;;;;10209079;28;94224;-66
2023/08/31 18:56:11;;;;;;;;;;;20.60;61.90;;;;;;10198624;28;94499;-68
2023/08/31 19:01:13;;;;;;;;;;;20.60;61.80;;;;;;10205491;28;93754;-68
2023/08/31 19:06:15;;;;;;;;;;;20.60;61.80;;;;;;10210765;28;93393;-66
2023/08/31 19:11:16;;;;;;;;;;;20.60;61.80;;;;;;10220326;28;93681;-68
2023/08/31 19:16:18;;;;;;;;;;;20.60;61.80;;;;;;10219377;28;96526;-68
2023/08/31 19:21:20;;;;;;;;;;;20.60;61.80;;;;;;10209150;28;93460;-68
2023/08/31 19:26:22;;;;;;;;;;;20.60;61.80;;;;;;10227048;28;93777;-67
2023/08/31 19:31:24;;;;;;;;;;;20.50;61.80;;;;;;10202429;28;94290;-68
2023/08/31 19:36:29;;;;;;;;;;;20.50;61.80;;;;;;10224922;28;93719;-68
2023/08/31 19:41:31;;;;;;;;;;;20.50;61.70;;;;;;10186561;28;93416;-67
2023/08/31 19:46:33;;;;;;;;;;;20.50;61.80;;;;;;10225790;28;93524;-67
2023/08/31 19:51:34;;;;;;;;;;;20.50;61.80;;;;;;10225274;28;93800;-67
2023/08/31 19:56:38;;;;;;;;;;;20.50;61.80;;;;;;10204131;28;93917;-67
2023/08/31 20:01:40;;;;;;;;;;;20.50;61.80;;;;;;10215780;28;94635;-67
2023/08/31 20:06:42;;;;;;;;;;;20.50;61.80;;;;;;10216979;28;96329;-67
2023/08/31 20:11:44;;;;;;;;;;;20.50;61.90;;;;;;10220262;28;93760;-67
2023/08/31 20:16:46;;;;;;;;;;;20.40;61.80;;;;;;10238531;28;93414;-67
2023/08/31 20:21:47;;;;;;;;;;;20.40;61.70;;;;;;10215758;28;94427;-67
2023/08/31 20:26:50;;;;;;;;;;;20.40;61.80;;;;;;10215702;28;93563;-67
2023/08/31 20:31:52;;;;;;;;;;;20.40;61.80;;;;;;10224300;28;96214;-67
2023/08/31 20:36:55;;;;;;;;;;;20.40;61.70;;;;;;10236210;28;93105;-67
2023/08/31 20:42:01;;;;;;;;;;;20.40;61.70;;;;;;10188801;28;93661;-67
2023/08/31 20:47:05;;;;;;;;;;;20.40;61.70;;;;;;10219170;28;93799;-67
2023/08/31 20:52:07;;;;;;;;;;;20.40;61.70;;;;;;10222598;28;94683;-71
2023/08/31 20:57:09;;;;;;;;;;;20.40;61.70;;;;;;10208286;28;96542;-71
2023/08/31 21:02:11;;;;;;;;;;;20.40;61.70;;;;;;10215550;28;93418;-72
2023/08/31 21:07:13;;;;;;;;;;;20.40;61.70;;;;;;10238328;28;94214;-72
2023/08/31 21:12:15;;;;;;;;;;;20.40;61.70;;;;;;10223713;28;93459;-71
2023/08/31 21:17:17;;;;;;;;;;;20.40;61.70;;;;;;10209182;28;93753;-71
2023/08/31 21:22:19;;;;;;;;;;;20.40;61.60;;;;;;10211130;28;95573;-71
2023/08/31 21:27:20;;;;;;;;;;;20.40;61.60;;;;;;10198361;28;94077;-71
2023/08/31 21:32:22;;;;;;;;;;;20.40;61.60;;;;;;10215041;28;92619;-71
2023/08/31 21:37:24;;;;;;;;;;;20.30;61.40;;;;;;10220497;28;93100;-71
2023/08/31 21:42:27;;;;;;;;;;;20.30;61.50;;;;;;10211047;28;94190;-71
2023/08/31 21:47:30;;;;;;;;;;;20.30;61.50;;;;;;10188961;28;96437;-71
2023/08/31 21:52:31;;;;;;;;;;;20.30;61.50;;;;;;10210678;28;94422;-71
2023/08/31 21:57:33;;;;;;;;;;;20.30;61.50;;;;;;10180679;28;94084;-72
2023/08/31 22:02:35;;;;;;;;;;;20.30;61.60;;;;;;10210988;28;95036;-72
2023/08/31 22:07:38;;;;;;;;;;;20.30;61.70;;;;;;10204698;28;93693;-71
2023/08/31 22:12:39;;;;;;;;;;;20.30;61.70;;;;;;10214075;28;93772;-72
2023/08/31 22:17:41;;;;;;;;;;;20.30;61.80;;;;;;10231781;28;94706;-72
2023/08/31 22:22:47;;;;;;;;;;;20.30;61.80;;;;;;10213934;28;93589;-72
2023/08/31 22:27:49;;;;;;;;;;;20.30;61.90;;;;;;10222717;28;93607;-71
2023/08/31 22:32:50;;;;;;;;;;;20.30;61.90;;;;;;10215094;28;93461;-71
2023/08/31 22:37:52;;;;;;;;;;;20.30;61.90;;;;;;10194301;28;96816;-72
2023/08/31 22:42:54;;;;;;;;;;;20.30;61.90;;;;;;10208955;28;93481;-71
2023/08/31 22:47:57;;;;;;;;;;;20.30;61.80;;;;;;10204470;28;94250;-71
2023/08/31 22:53:00;;;;;;;;;;;20.30;61.90;;;;;;10209076;28;93655;-71
2023/08/31 22:58:02;;;;;;;;;;;20.30;61.80;;;;;;10234752;28;93560;-71
2023/08/31 23:03:06;;;;;;;;;;;20.30;61.90;;;;;;10237468;28;94060;-68
2023/08/31 23:08:08;;;;;;;;;;;20.30;61.80;;;;;;10208482;28;94468;-68
2023/08/31 23:13:10;;;;;;;;;;;20.30;61.90;;;;;;10236325;28;92631;-67
2023/08/31 23:18:12;;;;;;;;;;;20.30;61.80;;;;;;10216132;28;93434;-69
2023/08/31 23:23:14;;;;;;;;;;;20.30;61.80;;;;;;10212976;28;93596;-68
2023/08/31 23:28:16;;;;;;;;;;;20.30;61.80;;;;;;10214886;28;96518;-67
2023/08/31 23:33:17;;;;;;;;;;;20.30;61.80;;;;;;10221552;28;94688;-69
2023/08/31 23:38:19;;;;;;;;;;;20.30;61.80;;;;;;10225604;28;94511;-68
2023/08/31 23:43:21;;;;;;;;;;;20.30;61.70;;;;;;10226531;28;93901;-68
2023/08/31 23:48:22;;;;;;;;;;;20.30;61.70;;;;;;10227205;28;94841;-68
2023/08/31 23:53:24;;;;;;;;;;;20.30;61.70;;;;;;10204905;28;93677;-68
2023/08/31 23:58:27;;;;;;;;;;;20.30;61.70;;;;;;10226701;28;94142;-69
